createdAt,value
2018-01-06T00:00:03.013Z,78.11
2018-01-06T00:05:02.956Z,78.3
2018-01-06T00:10:02.895Z,77.92
2018-01-06T00:15:02.836Z,78.3
2018-01-06T00:20:02.730Z,78.11
2018-01-06T00:25:02.669Z,77.4
2018-01-06T00:30:02.601Z,77.63
2018-01-06T00:35:02.513Z,77.4
2018-01-06T00:40:02.181Z,77.5
2018-01-06T00:45:02.408Z,77.69
2018-01-06T00:50:02.280Z,77.5
2018-01-06T00:55:02.207Z,77.88
2018-01-06T01:00:02.152Z,77.4
2018-01-06T01:05:02.061Z,77.31
2018-01-06T01:10:01.983Z,77.5
2018-01-06T01:15:01.906Z,77.59
2018-01-06T01:20:01.990Z,78.08
2018-01-06T01:25:01.752Z,77.84
2018-01-06T01:30:01.679Z,77.94
2018-01-06T01:35:01.602Z,77.94
2018-01-06T01:40:01.275Z,78.03
2018-01-06T01:45:01.450Z,77.84
2018-01-06T01:50:01.389Z,77.84
2018-01-06T01:55:01.360Z,78.23
2018-01-06T02:00:01.220Z,78.42
2018-01-06T02:05:01.148Z,78.52
2018-01-06T02:10:01.072Z,78.23
2018-01-06T02:15:01.006Z,78.32
2018-01-06T02:20:00.944Z,78.13
2018-01-06T02:25:00.858Z,78.28
2018-01-06T02:30:00.775Z,78.57
2018-01-06T02:35:00.708Z,78.38
2018-01-06T02:40:00.643Z,78.28
2018-01-06T02:45:00.573Z,78.38
2018-01-06T02:50:00.506Z,78.19
2018-01-06T02:55:00.414Z,78.28
2018-01-06T03:00:00.340Z,78.19
2018-01-06T03:05:00.263Z,78.38
2018-01-06T03:10:00.201Z,78.19
2018-01-06T03:15:00.114Z,78.19
2018-01-06T03:20:00.070Z,78
2018-01-06T03:24:59.981Z,77.9
2018-01-06T03:29:59.971Z,78
2018-01-06T03:34:59.821Z,77.8
2018-01-06T03:39:59.755Z,78
2018-01-06T03:44:59.682Z,77.71
2018-01-06T03:49:59.666Z,78.09
2018-01-06T03:54:59.543Z,77.9
2018-01-06T03:59:59.457Z,77.9
2018-01-06T04:04:59.375Z,78.09
2018-01-06T04:09:59.304Z,78.19
2018-01-06T04:14:59.225Z,78.19
2018-01-06T04:19:58.892Z,78
2018-01-06T04:24:59.139Z,78.38
2018-01-06T04:29:58.986Z,78.25
2018-01-06T04:34:58.907Z,78.38
2018-01-06T04:39:58.819Z,78.15
2018-01-06T04:44:58.750Z,78.34
2018-01-06T04:49:58.670Z,78.25
2018-01-06T04:54:58.584Z,78.25
2018-01-06T04:59:58.506Z,77.95
2018-01-06T05:04:58.430Z,78.15
2018-01-06T05:09:58.352Z,78.34
2018-01-06T05:14:58.282Z,78.53
2018-01-06T05:19:58.260Z,78.05
2018-01-06T05:24:58.118Z,78.15
2018-01-06T05:29:58.031Z,78.63
2018-01-06T05:34:57.956Z,78.63
2018-01-06T05:39:57.904Z,78.63
2018-01-06T05:44:57.796Z,78.49
2018-01-06T05:49:57.796Z,78.53
2018-01-06T05:54:57.649Z,78.4
2018-01-06T05:59:57.562Z,78.82
2018-01-06T06:04:57.488Z,78.4
2018-01-06T06:09:57.389Z,78.69
2018-01-06T06:14:57.335Z,78.78
2018-01-06T06:19:57.248Z,78.78
2018-01-06T06:24:57.171Z,78.69
2018-01-06T06:29:57.084Z,78.78
2018-01-06T06:34:57.015Z,78.69
2018-01-06T06:39:56.932Z,78.69
2018-01-06T06:44:56.835Z,78.49
2018-01-06T06:49:56.757Z,78.4
2018-01-06T06:54:56.686Z,78.3
2018-01-06T06:59:56.605Z,78.2
2018-01-06T07:04:56.518Z,77.86
2018-01-06T07:09:56.440Z,77.29
2018-01-06T07:14:56.363Z,77.76
2018-01-06T07:19:56.287Z,77.38
2018-01-06T07:24:56.227Z,77.04
2018-01-06T07:29:56.139Z,76.65
2018-01-06T07:34:56.067Z,76.27
2018-01-06T07:39:56.005Z,76.5
2018-01-06T07:44:55.979Z,76.12
2018-01-06T07:49:55.849Z,76.4
2018-01-06T07:54:55.773Z,76.5
2018-01-06T07:59:55.709Z,76.02
2018-01-06T08:04:55.653Z,76.5
2018-01-06T08:09:55.559Z,76.5
2018-01-06T08:14:55.499Z,76.5
2018-01-06T08:19:55.483Z,76.31
2018-01-06T08:24:55.341Z,76.69
2018-01-06T08:29:55.275Z,76.31
2018-01-06T08:34:55.201Z,76.12
2018-01-06T08:39:55.144Z,75.35
2018-01-06T08:44:55.059Z,75.45
2018-01-06T08:49:54.982Z,75.92
2018-01-06T08:54:54.915Z,76.44
2018-01-06T08:59:54.853Z,76.69
2018-01-06T09:04:54.769Z,75.45
2018-01-06T09:09:54.705Z,77.78
2018-01-06T09:14:54.636Z,77.5
2018-01-06T09:19:54.552Z,78.75
2018-01-06T09:24:54.528Z,78.84
2018-01-06T09:29:54.410Z,79.52
2018-01-06T09:34:54.337Z,78.17
2018-01-06T09:39:54.272Z,78.17
2018-01-06T09:44:54.198Z,78.17
2018-01-06T09:49:54.126Z,78.32
2018-01-06T09:54:54.155Z,78.03
2018-01-06T09:59:53.724Z,78.03
2018-01-06T10:04:53.906Z,77.88
2018-01-06T10:09:53.863Z,77.5
2018-01-06T10:14:53.838Z,77.69
2018-01-06T10:19:53.696Z,77.46
2018-01-06T10:24:53.644Z,77.17
2018-01-06T10:29:53.593Z,77.46
2018-01-06T10:34:53.470Z,77.56
2018-01-06T10:39:53.406Z,77.59
2018-01-06T10:44:53.322Z,77.59
2018-01-06T10:49:53.259Z,77.5
2018-01-06T10:54:53.187Z,77.4
2018-01-06T10:59:53.129Z,77.46
2018-01-06T11:04:53.054Z,77.88
2018-01-06T11:09:52.970Z,77.84
2018-01-06T11:14:52.898Z,78.03
2018-01-06T11:19:52.874Z,77.94
2018-01-06T11:24:52.492Z,77.21
2018-01-06T11:29:52.707Z,77.98
2018-01-06T11:34:52.612Z,78.55
2018-01-06T11:39:52.528Z,78.08
2018-01-06T11:44:52.208Z,78.08
2018-01-06T11:49:52.389Z,78.17
2018-01-06T11:54:52.371Z,78.45
2018-01-06T11:59:52.303Z,78.55
2018-01-06T12:04:52.189Z,78.65
2018-01-06T12:09:52.111Z,79.32
2018-01-06T12:14:52.048Z,80.47
2018-01-06T12:19:51.971Z,80.47
2018-01-06T12:24:51.903Z,79.75
2018-01-06T12:29:51.837Z,80.42
2018-01-06T12:34:51.778Z,79.94
2018-01-06T12:39:51.699Z,80.8
2018-01-06T12:44:51.617Z,79.75
2018-01-06T12:49:51.320Z,79.46
2018-01-06T12:54:51.484Z,79.36
2018-01-06T12:59:51.412Z,78.69
2018-01-06T13:04:51.344Z,79.84
2018-01-06T13:09:51.283Z,79.36
2018-01-06T13:14:51.210Z,79.07
2018-01-06T13:19:51.145Z,79.94
2018-01-06T13:24:51.188Z,79.27
2018-01-06T13:29:51.011Z,79.36
2018-01-06T13:34:50.935Z,78.59
2018-01-06T13:39:50.860Z,78.98
2018-01-06T13:44:50.856Z,79.65
2018-01-06T13:49:50.720Z,79.75
2018-01-06T13:54:50.664Z,78.59
2018-01-06T13:59:50.586Z,79.27
2018-01-06T14:04:50.514Z,79.27
2018-01-06T14:09:50.446Z,79.27
2018-01-06T14:14:50.450Z,78.78
2018-01-06T14:19:50.298Z,79.36
2018-01-06T14:24:50.234Z,78.88
2018-01-06T14:29:50.170Z,78.98
2018-01-06T14:34:50.107Z,78.88
2018-01-06T14:39:50.028Z,78.78
2018-01-06T14:44:49.963Z,78.59
2018-01-06T14:49:49.964Z,78.78
2018-01-06T14:54:49.819Z,78.59
2018-01-06T14:59:49.776Z,78.5
2018-01-06T15:04:49.673Z,77.92
2018-01-06T15:09:49.678Z,78.5
2018-01-06T15:14:49.293Z,78.78
2018-01-06T15:19:49.464Z,78.21
2018-01-06T15:24:49.404Z,78.4
2018-01-06T15:29:49.353Z,78.88
2018-01-06T15:34:49.278Z,78.11
2018-01-06T15:39:49.199Z,78.21
2018-01-06T15:44:49.177Z,77.44
2018-01-06T15:49:49.083Z,77.73
2018-01-06T15:54:48.992Z,77.44
2018-01-06T15:59:48.929Z,77.53
2018-01-06T16:04:48.857Z,77.44
2018-01-06T16:09:48.789Z,77.11
2018-01-06T16:14:48.725Z,77.5
2018-01-06T16:19:48.653Z,77.5
2018-01-06T16:24:48.597Z,77.59
2018-01-06T16:29:48.529Z,76.34
2018-01-06T16:34:48.447Z,77.59
2018-01-06T16:39:48.378Z,77.5
2018-01-06T16:44:48.307Z,78.02
2018-01-06T16:49:48.239Z,78.11
2018-01-06T16:54:48.185Z,77.48
2018-01-06T16:59:48.121Z,76.14
2018-01-06T17:04:48.038Z,76.23
2018-01-06T17:09:47.989Z,76.09
2018-01-06T17:14:47.905Z,76.67
2018-01-06T17:19:47.854Z,77.53
2018-01-06T17:24:47.767Z,79.27
2018-01-06T17:29:47.722Z,78.11
2018-01-06T17:34:47.633Z,77.96
2018-01-06T17:39:47.566Z,78.53
2018-01-06T17:44:47.501Z,77.48
2018-01-06T17:49:47.435Z,77.09
2018-01-06T17:54:47.360Z,77.19
2018-01-06T17:59:47.305Z,76.9
2018-01-06T18:04:47.242Z,77.58
2018-01-06T18:09:47.177Z,76.81
2018-01-06T18:14:47.104Z,76.04
2018-01-06T18:19:47.028Z,77.29
2018-01-06T18:24:46.970Z,76.71
2018-01-06T18:29:46.914Z,76.32
2018-01-06T18:34:46.854Z,76.14
2018-01-06T18:39:46.784Z,74.69
2018-01-06T18:44:46.714Z,74.6
2018-01-06T18:49:46.655Z,75.17
2018-01-06T18:54:46.576Z,74.79
2018-01-06T18:59:46.520Z,73.92
2018-01-06T19:04:46.502Z,73.25
2018-01-06T19:09:46.398Z,72.48
2018-01-06T19:14:46.310Z,73.15
2018-01-06T19:19:46.254Z,72.77
2018-01-06T19:24:46.184Z,74.02
2018-01-06T19:29:46.127Z,73.83
2018-01-06T19:34:46.045Z,75.46
2018-01-06T19:39:45.984Z,74.79
2018-01-06T19:44:45.912Z,73.86
2018-01-06T19:49:45.838Z,73.28
2018-01-06T19:54:45.772Z,73.06
2018-01-06T19:59:45.720Z,71.84
2018-01-06T20:04:45.656Z,73.47
2018-01-06T20:09:45.583Z,73.09
2018-01-06T20:14:45.571Z,72.23
2018-01-06T20:19:45.454Z,70.98
2018-01-06T20:24:45.409Z,72.03
2018-01-06T20:29:45.377Z,72.23
2018-01-06T20:34:45.379Z,70.78
2018-01-06T20:39:45.239Z,69.82
2018-01-06T20:44:45.218Z,68.96
2018-01-06T20:49:45.123Z,70.5
2018-01-06T20:54:45.143Z,70.11
2018-01-06T20:59:45.167Z,69.73
2018-01-06T21:04:44.971Z,70.3
2018-01-06T21:09:44.824Z,70.21
2018-01-06T21:14:44.768Z,68.76
2018-01-06T21:19:44.693Z,68.57
2018-01-06T21:24:44.643Z,69.15
2018-01-06T21:29:44.663Z,68.57
2018-01-06T21:34:44.576Z,68.8
2018-01-06T21:39:44.487Z,68.99
2018-01-06T21:44:44.376Z,68.32
2018-01-06T21:49:44.320Z,69.09
2018-01-06T21:54:44.274Z,68.13
2018-01-06T21:59:44.212Z,66.88
2018-01-06T22:04:44.141Z,68.51
2018-01-06T22:09:44.080Z,67.93
2018-01-06T22:14:44.017Z,67.55
2018-01-06T22:19:43.954Z,68.13
2018-01-06T22:24:43.892Z,68.41
2018-01-06T22:29:43.832Z,68.7
2018-01-06T22:34:43.759Z,68.9
2018-01-06T22:39:43.712Z,67.74
2018-01-06T22:44:43.642Z,67.93
2018-01-06T22:49:43.584Z,68.32
2018-01-06T22:54:43.518Z,68.22
2018-01-06T22:59:43.478Z,67.51
2018-01-06T23:04:43.426Z,68.48
2018-01-06T23:09:43.342Z,69.92
2018-01-06T23:14:43.348Z,70.4
2018-01-06T23:19:43.217Z,69.73
2018-01-06T23:24:43.177Z,69.63
2018-01-06T23:29:43.092Z,69.69
2018-01-06T23:34:43.028Z,69.6
2018-01-06T23:39:43.050Z,69.69
2018-01-06T23:44:42.939Z,70.65
2018-01-06T23:49:42.830Z,70.84
2018-01-06T23:54:42.851Z,71.42
2018-01-06T23:59:42.721Z,71.33
